createdAt,value
2018-07-20T00:01:21.092Z,99.90
2018-07-20T00:03:51.386Z,99.90
2018-07-20T00:06:21.407Z,99.90
2018-07-20T00:08:51.591Z,99.90
2018-07-20T00:13:51.684Z,99.90
2018-07-20T00:16:21.637Z,99.90
2018-07-20T00:18:51.664Z,99.90
2018-07-20T00:21:21.563Z,99.90
2018-07-20T00:23:51.579Z,99.90
2018-07-20T00:26:21.760Z,99.90
2018-07-20T00:28:51.838Z,99.90
2018-07-20T00:31:21.933Z,99.90
2018-07-20T00:33:52.106Z,99.90
2018-07-20T00:36:22.311Z,99.90
2018-07-20T00:38:52.477Z,99.90
2018-07-20T00:41:22.528Z,99.90
2018-07-20T00:46:22.223Z,99.90
2018-07-20T00:48:52.559Z,99.90
2018-07-20T00:51:22.643Z,99.90
2018-07-20T00:53:52.782Z,99.90
2018-07-20T00:56:22.793Z,99.90
2018-07-20T00:58:52.839Z,99.90
2018-07-20T01:01:22.837Z,99.90
2018-07-20T01:03:53.310Z,99.90
2018-07-20T01:06:23.591Z,99.90
2018-07-20T01:08:53.774Z,99.90
2018-07-20T01:11:23.622Z,99.90
2018-07-20T01:13:53.898Z,99.90
2018-07-20T01:16:24.188Z,99.90
2018-07-20T01:18:54.247Z,99.90
2018-07-20T01:21:24.723Z,99.90
2018-07-20T01:23:55.029Z,99.90
2018-07-20T01:26:25.770Z,99.90
2018-07-20T01:28:56.350Z,99.90
2018-07-20T01:31:26.568Z,99.90
2018-07-20T01:33:57.083Z,99.90
2018-07-20T01:36:27.260Z,99.90
2018-07-20T01:38:57.317Z,99.90
2018-07-20T01:41:27.425Z,99.90
2018-07-20T01:43:57.477Z,99.90
2018-07-20T01:46:27.625Z,99.90
2018-07-20T01:48:57.798Z,99.90
2018-07-20T01:51:27.902Z,99.90
2018-07-20T01:53:58.174Z,99.90
2018-07-20T01:56:28.387Z,99.90
2018-07-20T01:58:58.441Z,99.90
2018-07-20T02:01:28.934Z,99.90
2018-07-20T02:03:58.907Z,99.90
2018-07-20T02:06:29.027Z,99.90
2018-07-20T02:11:28.795Z,99.90
2018-07-20T02:13:58.826Z,99.90
2018-07-20T02:16:28.973Z,99.90
2018-07-20T02:18:58.939Z,99.90
2018-07-20T02:21:29.217Z,99.90
2018-07-20T02:23:59.139Z,99.90
2018-07-20T02:26:29.409Z,99.90
2018-07-20T02:28:59.399Z,99.90
2018-07-20T02:31:29.922Z,99.90
2018-07-20T02:34:00.090Z,99.90
2018-07-20T02:36:31.091Z,99.90
2018-07-20T02:39:01.129Z,99.90
2018-07-20T02:41:31.061Z,99.90
2018-07-20T02:44:01.208Z,99.90
2018-07-20T02:46:31.832Z,99.90
2018-07-20T02:49:01.767Z,99.90
2018-07-20T02:51:31.776Z,99.90
2018-07-20T02:54:02.167Z,99.90
2018-07-20T02:56:32.465Z,99.90
2018-07-20T02:59:02.614Z,99.90
2018-07-20T03:01:33.134Z,99.90
2018-07-20T03:04:03.881Z,99.90
2018-07-20T03:06:34.529Z,99.90
2018-07-20T03:09:07.420Z,99.90
2018-07-20T03:11:37.425Z,99.90
2018-07-20T03:14:08.054Z,99.90
2018-07-20T03:16:38.373Z,99.90
2018-07-20T03:19:08.494Z,99.90
2018-07-20T03:21:38.504Z,99.90
2018-07-20T03:24:08.515Z,99.90
2018-07-20T03:26:38.597Z,99.90
2018-07-20T03:29:08.761Z,99.90
2018-07-20T03:31:38.820Z,99.90
2018-07-20T03:36:38.412Z,99.90
2018-07-20T03:39:10.530Z,99.90
2018-07-20T03:41:40.905Z,99.90
2018-07-20T03:44:10.897Z,99.90
2018-07-20T03:46:40.930Z,99.90
2018-07-20T03:49:11.019Z,99.90
2018-07-20T03:51:41.413Z,99.90
2018-07-20T03:54:11.595Z,99.90
2018-07-20T03:56:42.199Z,99.90
2018-07-20T03:59:12.480Z,99.90
2018-07-20T04:04:12.238Z,99.90
2018-07-20T04:06:42.243Z,99.90
2018-07-20T04:09:12.516Z,99.90
2018-07-20T04:11:42.834Z,99.90
2018-07-20T04:14:13.118Z,99.90
2018-07-20T04:16:43.263Z,99.90
2018-07-20T04:19:13.390Z,99.90
2018-07-20T04:21:43.511Z,99.90
2018-07-20T04:24:14.251Z,99.90
2018-07-20T04:26:44.598Z,99.90
2018-07-20T04:29:14.709Z,99.90
2018-07-20T04:31:45.067Z,99.90
2018-07-20T04:34:15.560Z,99.90
2018-07-20T04:36:45.447Z,99.90
2018-07-20T04:39:15.939Z,99.90
2018-07-20T04:41:46.319Z,99.90
2018-07-20T04:44:16.726Z,99.90
2018-07-20T04:46:47.217Z,99.90
2018-07-20T04:49:17.461Z,99.90
2018-07-20T04:51:47.446Z,99.90
2018-07-20T04:54:17.697Z,99.90
2018-07-20T04:56:47.956Z,99.90
2018-07-20T04:59:17.891Z,99.90
2018-07-20T05:01:47.904Z,99.90
2018-07-20T05:04:18.625Z,99.90
2018-07-20T05:06:48.743Z,99.90
2018-07-20T05:09:19.157Z,99.90
2018-07-20T05:11:50.701Z,99.90
2018-07-20T05:14:22.004Z,99.90
2018-07-20T05:16:52.498Z,99.90
2018-07-20T05:19:23.320Z,99.90
2018-07-20T05:21:53.862Z,99.90
2018-07-20T05:24:24.732Z,99.90
2018-07-20T05:26:55.154Z,99.90
2018-07-20T05:29:26.077Z,99.90
2018-07-20T05:31:57.515Z,99.90
2018-07-20T05:34:28.111Z,99.90
2018-07-20T05:36:58.361Z,99.90
2018-07-20T05:39:28.706Z,99.90
2018-07-20T05:41:59.290Z,99.90
2018-07-20T05:44:29.925Z,99.90
2018-07-20T05:47:00.595Z,99.90
2018-07-20T05:54:30.806Z,99.90
2018-07-20T05:57:01.673Z,99.90
2018-07-20T05:59:31.966Z,99.90
2018-07-20T06:02:02.393Z,99.90
2018-07-20T06:04:33.268Z,99.90
2018-07-20T06:09:33.949Z,99.90
2018-07-20T06:12:04.653Z,99.90
2018-07-20T06:14:35.131Z,99.90
2018-07-20T06:17:06.204Z,99.90
2018-07-20T06:19:36.820Z,99.90
2018-07-20T06:22:07.676Z,99.90
2018-07-20T06:27:08.195Z,99.90
2018-07-20T06:29:38.810Z,99.90
2018-07-20T06:32:09.723Z,99.90
2018-07-20T06:34:40.209Z,99.90
2018-07-20T06:37:10.949Z,99.90
2018-07-20T06:39:41.298Z,99.90
2018-07-20T06:42:11.548Z,99.90
2018-07-20T06:44:42.649Z,99.90
2018-07-20T06:47:13.722Z,99.90
2018-07-20T06:49:44.949Z,99.90
2018-07-20T06:52:16.740Z,99.90
2018-07-20T06:54:47.149Z,99.90
2018-07-20T06:57:17.600Z,99.90
2018-07-20T06:59:47.855Z,99.90
2018-07-20T07:02:18.805Z,99.90
2018-07-20T07:07:18.857Z,99.90
2018-07-20T07:09:49.521Z,99.90
2018-07-20T07:12:20.167Z,99.90
2018-07-20T07:14:51.169Z,99.90
2018-07-20T07:17:21.876Z,99.90
2018-07-20T07:19:52.194Z,99.90
2018-07-20T07:24:52.577Z,99.90
2018-07-20T07:27:22.752Z,99.90
2018-07-20T07:29:53.294Z,99.90
2018-07-20T07:34:53.358Z,99.90
2018-07-20T07:37:23.854Z,99.90
2018-07-20T07:39:54.606Z,99.90
2018-07-20T07:42:25.039Z,99.90
2018-07-20T07:44:55.779Z,99.90
2018-07-20T07:47:26.822Z,98.90
2018-07-20T07:49:57.166Z,97.20
2018-07-20T07:52:27.950Z,99.20
2018-07-20T07:54:58.267Z,97.10
2018-07-20T07:57:28.878Z,98.90
2018-07-20T07:59:59.726Z,98.40
2018-07-20T08:02:30.287Z,94.30
2018-07-20T08:05:00.959Z,95.80
2018-07-20T08:07:31.551Z,96.60
2018-07-20T08:10:02.640Z,93.90
2018-07-20T08:12:33.198Z,87.10
2018-07-20T08:17:33.566Z,88.50
2018-07-20T08:20:04.657Z,86.80
2018-07-20T08:22:35.439Z,83.40
2018-07-20T08:25:06.478Z,80.70
2018-07-20T08:27:36.769Z,79.10
2018-07-20T08:30:07.566Z,78.00
2018-07-20T08:32:37.950Z,75.20
2018-07-20T08:35:08.378Z,75.30
2018-07-20T08:37:39.438Z,75.20
2018-07-20T08:40:10.047Z,72.80
2018-07-20T08:42:40.671Z,77.70
2018-07-20T08:45:12.719Z,71.40
2018-07-20T08:47:43.487Z,77.30
2018-07-20T08:50:16.110Z,67.40
2018-07-20T08:52:46.820Z,69.90
2018-07-20T08:55:17.551Z,69.80
2018-07-20T08:57:47.808Z,71.70
2018-07-20T09:00:18.616Z,68.40
2018-07-20T09:02:49.087Z,63.00
2018-07-20T09:05:19.790Z,67.40
2018-07-20T09:07:50.524Z,62.70
2018-07-20T09:10:20.903Z,63.70
2018-07-20T09:12:51.248Z,57.80
2018-07-20T09:15:21.799Z,57.30
2018-07-20T09:17:52.351Z,60.50
2018-07-20T09:22:53.598Z,58.10
2018-07-20T09:25:24.366Z,56.80
2018-07-20T09:27:54.567Z,55.30
2018-07-20T09:30:25.135Z,52.40
2018-07-20T09:32:55.567Z,49.00
2018-07-20T09:35:26.319Z,51.10
2018-07-20T09:37:56.663Z,49.70
2018-07-20T09:40:27.488Z,46.80
2018-07-20T09:42:57.857Z,48.30
2018-07-20T09:45:29.407Z,49.70
2018-07-20T09:47:59.887Z,51.30
2018-07-20T09:50:30.376Z,46.10
2018-07-20T09:53:01.198Z,47.30
2018-07-20T09:55:31.567Z,47.30
2018-07-20T09:58:01.791Z,47.40
2018-07-20T10:00:36.958Z,48.20
2018-07-20T10:03:08.256Z,49.20
2018-07-20T10:05:38.904Z,47.60
2018-07-20T10:08:09.535Z,47.30
2018-07-20T10:10:40.446Z,47.30
2018-07-20T10:13:10.847Z,45.20
2018-07-20T10:15:41.439Z,44.00
2018-07-20T10:18:11.935Z,46.10
2018-07-20T10:20:43.070Z,44.60
2018-07-20T10:23:13.391Z,43.30
2018-07-20T10:25:44.470Z,42.00
2018-07-20T10:28:15.087Z,43.00
2018-07-20T10:30:45.523Z,44.50
2018-07-20T10:33:16.278Z,44.40
2018-07-20T10:35:46.831Z,42.10
2018-07-20T10:38:18.175Z,43.10
2018-07-20T10:40:49.247Z,40.70
2018-07-20T10:43:19.842Z,41.50
2018-07-20T10:45:50.286Z,44.30
2018-07-20T10:53:21.975Z,41.50
2018-07-20T10:55:52.415Z,41.00
2018-07-20T10:58:23.406Z,41.40
2018-07-20T11:00:53.728Z,42.20
2018-07-20T11:03:24.194Z,39.00
2018-07-20T11:05:54.898Z,37.80
2018-07-20T11:08:25.550Z,40.80
2018-07-20T11:10:55.998Z,39.00
2018-07-20T11:13:26.677Z,41.00
2018-07-20T11:15:57.550Z,41.30
2018-07-20T11:20:57.974Z,39.60
2018-07-20T11:23:29.446Z,40.70
2018-07-20T11:25:59.646Z,39.20
2018-07-20T11:28:29.758Z,43.10
2018-07-20T11:31:00.606Z,39.40
2018-07-20T11:33:31.359Z,39.50
2018-07-20T11:36:01.656Z,42.90
2018-07-20T11:38:32.015Z,40.40
2018-07-20T11:41:02.910Z,38.40
2018-07-20T11:43:33.534Z,41.40
2018-07-20T11:46:04.095Z,38.40
2018-07-20T11:48:34.773Z,39.80
2018-07-20T11:51:07.566Z,38.20
2018-07-20T11:53:38.206Z,39.90
2018-07-20T11:56:13.678Z,38.60
2018-07-20T11:58:44.655Z,37.30
2018-07-20T12:01:15.066Z,38.20
2018-07-20T12:06:15.710Z,34.50
2018-07-20T12:16:23.736Z,36.20
2018-07-20T12:19:01.700Z,35.90
2018-07-20T12:21:32.128Z,38.10
2018-07-20T12:24:02.846Z,41.40
2018-07-20T12:26:45.471Z,38.90
2018-07-20T12:29:24.126Z,39.40
2018-07-20T12:31:55.374Z,37.60
2018-07-20T12:34:25.886Z,39.00
2018-07-20T12:36:56.206Z,38.40
2018-07-20T12:39:26.766Z,38.60
2018-07-20T12:41:57.710Z,38.90
2018-07-20T12:47:02.638Z,35.80
2018-07-20T12:49:32.926Z,38.00
2018-07-20T12:52:03.417Z,40.20
2018-07-20T12:54:42.527Z,38.80
2018-07-20T12:57:13.726Z,40.60
2018-07-20T12:59:47.871Z,38.70
2018-07-20T13:02:22.143Z,40.30
2018-07-20T13:04:52.606Z,41.80
2018-07-20T13:07:22.974Z,38.30
2018-07-20T13:12:23.645Z,38.20
2018-07-20T13:14:53.886Z,40.60
2018-07-20T13:17:27.928Z,38.20
2018-07-20T13:19:58.670Z,37.30
2018-07-20T13:22:29.406Z,39.10
2018-07-20T13:25:01.236Z,41.30
2018-07-20T13:27:31.886Z,40.80
2018-07-20T13:30:02.609Z,40.60
2018-07-20T13:32:33.406Z,37.70
2018-07-20T13:35:04.015Z,39.50
2018-07-20T13:37:34.585Z,39.50
2018-07-20T13:40:06.167Z,40.50
2018-07-20T13:42:37.039Z,39.40
2018-07-20T13:45:09.253Z,39.50
2018-07-20T13:47:39.886Z,38.20
2018-07-20T13:50:10.718Z,38.00
2018-07-20T13:52:40.993Z,40.40
2018-07-20T13:55:11.486Z,40.50
2018-07-20T13:57:42.566Z,39.00
2018-07-20T14:02:44.670Z,40.50
2018-07-20T14:05:15.726Z,40.60
2018-07-20T14:07:46.977Z,40.90
2018-07-20T14:10:17.486Z,39.40
2018-07-20T14:12:47.998Z,40.70
2018-07-20T14:15:18.366Z,40.80
2018-07-20T14:17:48.687Z,39.60
2018-07-20T14:20:19.328Z,41.50
2018-07-20T14:22:49.677Z,40.60
2018-07-20T14:25:20.606Z,42.40
2018-07-20T14:27:50.958Z,42.40
2018-07-20T14:32:51.726Z,45.10
2018-07-20T14:35:22.422Z,45.10
2018-07-20T14:37:53.886Z,40.90
2018-07-20T14:45:23.439Z,43.00
2018-07-20T14:50:24.049Z,40.30
2018-07-20T14:52:57.486Z,42.30
2018-07-20T14:55:28.239Z,43.60
2018-07-20T14:58:00.047Z,44.60
2018-07-20T15:00:30.414Z,44.70
2018-07-20T15:03:00.876Z,43.50
2018-07-20T15:05:31.377Z,44.50
2018-07-20T15:08:02.079Z,43.40
2018-07-20T15:10:32.899Z,44.10
2018-07-20T15:13:04.126Z,43.40
2018-07-20T15:15:35.695Z,43.60
2018-07-20T15:18:06.748Z,44.30
2018-07-20T15:20:38.815Z,45.30
2018-07-20T15:25:39.206Z,46.10
2018-07-20T15:28:10.090Z,47.70
2018-07-20T15:33:10.086Z,47.80
2018-07-20T15:35:40.649Z,48.80
2018-07-20T15:38:11.938Z,46.70
2018-07-20T15:40:42.886Z,49.30
2018-07-20T15:43:13.559Z,48.90
2018-07-20T15:48:14.309Z,50.80
2018-07-20T15:50:44.998Z,50.60
2018-07-20T15:53:42.873Z,49.20
2018-07-20T15:55:46.731Z,50.40
2018-07-20T16:00:47.256Z,52.80
2018-07-20T16:03:17.676Z,52.10
2018-07-20T16:05:48.434Z,53.20
2018-07-20T16:08:19.094Z,52.90
2018-07-20T16:10:49.510Z,52.80
2018-07-20T16:13:20.358Z,50.90
2018-07-20T16:15:51.935Z,51.20
2018-07-20T16:18:22.782Z,55.80
2018-07-20T16:20:53.558Z,53.90
2018-07-20T16:25:53.864Z,54.70
2018-07-20T16:28:24.374Z,56.30
2018-07-20T16:30:55.049Z,55.70
2018-07-20T16:33:25.846Z,56.20
2018-07-20T16:35:56.754Z,56.20
2018-07-20T16:38:28.232Z,57.70
2018-07-20T16:40:59.167Z,57.40
2018-07-20T16:43:29.958Z,57.90
2018-07-20T16:48:30.091Z,57.60
2018-07-20T16:51:01.697Z,57.90
2018-07-20T16:53:32.070Z,56.70
2018-07-20T16:56:02.310Z,56.50
2018-07-20T16:58:32.830Z,58.20
2018-07-20T17:04:26.192Z,58.90
2018-07-20T17:06:57.390Z,59.80
2018-07-20T17:09:28.080Z,59.10
2018-07-20T17:14:28.455Z,58.50
2018-07-20T17:16:58.878Z,58.20
2018-07-20T17:19:29.618Z,59.70
2018-07-20T17:22:00.097Z,59.90
2018-07-20T17:24:30.414Z,60.50
2018-07-20T17:27:01.199Z,60.60
2018-07-20T17:29:34.247Z,61.10
2018-07-20T17:32:04.775Z,62.20
2018-07-20T17:37:06.215Z,65.70
2018-07-20T17:39:36.647Z,63.60
2018-07-20T17:42:08.161Z,63.20
2018-07-20T17:44:40.350Z,64.60
2018-07-20T17:47:10.767Z,63.90
2018-07-20T17:49:41.536Z,64.20
2018-07-20T17:52:14.466Z,66.40
2018-07-20T17:54:45.418Z,65.20
2018-07-20T17:57:16.944Z,65.20
2018-07-20T17:59:47.391Z,65.20
2018-07-20T18:02:18.030Z,64.80
2018-07-20T18:04:48.599Z,64.50
2018-07-20T18:07:19.157Z,66.00
2018-07-20T18:09:52.870Z,68.00
2018-07-20T18:12:23.527Z,67.10
2018-07-20T18:14:54.014Z,68.80
2018-07-20T18:19:54.487Z,69.60
2018-07-20T18:22:25.655Z,72.60
2018-07-20T18:24:57.911Z,73.60
2018-07-20T18:27:28.838Z,76.20
2018-07-20T18:30:01.069Z,75.90
2018-07-20T18:35:01.139Z,79.70
2018-07-20T18:37:31.673Z,79.60
2018-07-20T18:40:02.257Z,80.10
2018-07-20T18:45:02.003Z,83.70
2018-07-20T18:47:32.473Z,81.50
2018-07-20T18:50:02.733Z,82.20
2018-07-20T18:52:33.460Z,85.30
2018-07-20T18:57:33.500Z,88.30
2018-07-20T19:05:02.944Z,90.20
2018-07-20T19:10:10.384Z,93.80
2018-07-20T19:15:10.657Z,96.80
2018-07-20T19:17:41.298Z,99.20
2018-07-20T19:20:11.520Z,99.90
2018-07-20T19:22:42.772Z,99.90
2018-07-20T19:25:13.565Z,99.90
2018-07-20T19:27:44.796Z,99.90
2018-07-20T19:30:15.444Z,99.90
2018-07-20T19:32:46.266Z,99.90
2018-07-20T19:35:17.129Z,99.90
2018-07-20T19:37:47.548Z,99.90
2018-07-20T19:40:18.326Z,99.90
2018-07-20T19:45:18.778Z,99.90
2018-07-20T19:47:49.426Z,99.90
2018-07-20T19:50:19.802Z,99.90
2018-07-20T19:52:50.666Z,99.90
2018-07-20T19:57:51.257Z,99.90
2018-07-20T20:00:22.921Z,99.90
2018-07-20T20:02:53.721Z,99.90
2018-07-20T20:05:24.241Z,99.90
2018-07-20T20:10:25.340Z,99.90
2018-07-20T20:12:56.477Z,99.90
2018-07-20T20:15:27.585Z,99.90
2018-07-20T20:17:58.284Z,99.90
2018-07-20T20:20:29.498Z,99.90
2018-07-20T20:23:00.899Z,99.90
2018-07-20T20:28:08.109Z,99.90
2018-07-20T20:30:40.333Z,99.90
2018-07-20T20:33:10.907Z,99.90
2018-07-20T20:40:40.580Z,99.90
2018-07-20T20:43:11.380Z,99.90
2018-07-20T20:48:11.477Z,99.90
2018-07-20T20:50:41.988Z,99.90
2018-07-20T20:53:12.428Z,99.90
2018-07-20T20:55:42.891Z,99.90
2018-07-20T21:03:12.500Z,99.90
2018-07-20T21:05:42.974Z,99.90
2018-07-20T21:08:13.372Z,99.90
2018-07-20T21:10:43.788Z,99.90
2018-07-20T21:13:14.383Z,99.90
2018-07-20T21:15:46.548Z,99.90
2018-07-20T21:18:17.828Z,99.90
2018-07-20T21:20:49.708Z,99.90
2018-07-20T21:23:21.467Z,99.90
2018-07-20T21:28:21.491Z,99.90
2018-07-20T21:30:51.651Z,99.90
2018-07-20T21:33:23.261Z,99.90
2018-07-20T21:35:54.150Z,99.90
2018-07-20T21:38:27.651Z,99.90
2018-07-20T21:40:58.947Z,99.90
2018-07-20T21:43:29.811Z,99.90
2018-07-20T21:45:59.859Z,99.90
2018-07-20T21:48:31.375Z,99.90
2018-07-20T21:51:02.932Z,99.90
2018-07-20T21:53:33.820Z,99.90
2018-07-20T21:56:04.571Z,99.90
2018-07-20T21:58:34.875Z,99.90
2018-07-20T22:01:05.389Z,99.90
2018-07-20T22:03:36.125Z,99.90
2018-07-20T22:06:06.703Z,99.90
2018-07-20T22:08:37.307Z,99.90
2018-07-20T22:11:07.892Z,99.90
2018-07-20T22:13:38.510Z,99.90
2018-07-20T22:16:09.139Z,99.90
2018-07-20T22:18:39.626Z,99.90
2018-07-20T22:21:10.285Z,99.90
2018-07-20T22:28:40.576Z,99.90
2018-07-20T22:31:11.476Z,99.90
2018-07-20T22:33:42.346Z,99.90
2018-07-20T22:36:13.201Z,99.90
2018-07-20T22:38:43.740Z,99.90
2018-07-20T22:41:14.275Z,99.90
2018-07-20T22:43:45.142Z,99.90
2018-07-20T22:48:45.901Z,99.90
2018-07-20T22:51:16.623Z,99.90
2018-07-20T22:53:46.974Z,99.90
2018-07-20T22:56:17.381Z,99.90
2018-07-20T23:01:17.898Z,99.90
2018-07-20T23:03:48.598Z,99.90
2018-07-20T23:06:19.107Z,99.90
2018-07-20T23:08:49.487Z,99.90
2018-07-20T23:11:19.925Z,99.90
2018-07-20T23:13:50.288Z,99.90
2018-07-20T23:16:20.478Z,99.90
2018-07-20T23:18:51.227Z,99.90
2018-07-20T23:23:50.505Z,99.90
2018-07-20T23:26:21.430Z,99.90
2018-07-20T23:28:51.846Z,99.90
2018-07-20T23:31:22.070Z,99.90
2018-07-20T23:33:52.202Z,99.90
2018-07-20T23:36:22.360Z,99.90
2018-07-20T23:38:52.357Z,99.90
2018-07-20T23:41:22.514Z,99.90
2018-07-20T23:43:52.767Z,99.90
2018-07-20T23:46:23.035Z,99.90
2018-07-20T23:51:23.564Z,99.90
2018-07-20T23:53:53.695Z,99.90
2018-07-20T23:56:23.775Z,99.90
2018-07-20T23:58:53.915Z,99.90
